Time;durP1;ratioP1;P1;durP2;ratioP2;P2;SDS_P1;SDS_P2;PMS_P1;PMS_P2;Temp;Humidity;BMP_temperature;BMP_pressure;BME280_temperature;BME280_humidity;BME280_pressure;Samples;Min_cycle;Max_cycle;Signal;HPM_P1;HPM_P2
2023/08/27 18:06:23;;;;;;;1.38;0.70;;;;;;;21.79;60.75;100991.47;5039426;28;21064;-54
2023/08/27 18:08:49;;;;;;;1.50;0.80;;;;;;;21.80;60.86;100990.47;5038195;28;20045;-52
2023/08/27 18:11:14;;;;;;;2.38;0.77;;;;;;;21.81;60.90;100988.59;5041847;28;20033;-54
2023/08/27 18:13:40;;;;;;;1.85;0.70;;;;;;;21.81;60.47;100994.84;5047426;28;20108;-53
2023/08/27 18:16:05;;;;;;;1.77;0.70;;;;;;;21.82;60.77;100993.84;5044501;28;20735;-52
2023/08/27 18:18:31;;;;;;;1.73;0.63;;;;;;;21.84;60.76;101002.66;5041900;28;20032;-52
2023/08/27 18:20:56;;;;;;;0.90;0.70;;;;;;;21.86;60.27;100988.94;5044799;28;20041;-52
2023/08/27 18:23:21;;;;;;;0.60;0.60;;;;;;;21.89;60.21;100990.47;5042598;28;20033;-54
2023/08/27 18:25:47;;;;;;;1.90;0.60;;;;;;;21.90;60.51;100998.44;5039189;28;20045;-53
2023/08/27 18:28:12;;;;;;;2.00;0.95;;;;;;;21.92;60.53;101000.97;5046252;28;20055;-54
2023/08/27 18:30:38;;;;;;;1.77;0.82;;;;;;;21.94;60.02;100996.22;5040321;28;20029;-54
2023/08/27 18:33:04;;;;;;;1.13;0.60;;;;;;;21.95;60.11;101008.75;5043286;28;20478;-52
2023/08/27 18:35:30;;;;;;;0.60;0.40;;;;;;;21.98;60.48;101011.97;5047210;28;20033;-53
2023/08/27 18:37:56;;;;;;;0.57;0.50;;;;;;;22.00;60.30;101009.09;5042869;28;20078;-52
2023/08/27 18:40:22;;;;;;;1.65;0.50;;;;;;;22.01;60.38;100999.97;5045654;28;20033;-54
2023/08/27 18:42:47;;;;;;;0.40;0.40;;;;;;;22.02;60.40;101005.19;5044328;28;20111;-53
2023/08/27 18:45:13;;;;;;;2.42;0.47;;;;;;;22.04;60.06;101010.44;5042932;28;20047;-54
2023/08/27 18:47:38;;;;;;;1.02;0.55;;;;;;;22.06;59.77;101013.84;5044118;28;20048;-52
2023/08/27 18:50:04;;;;;;;0.75;0.50;;;;;;;22.06;59.95;101011.97;5040295;28;20167;-54
2023/08/27 18:52:29;;;;;;;0.80;0.55;;;;;;;22.09;59.65;101028.94;5042018;28;20029;-54
2023/08/27 18:54:55;;;;;;;1.45;0.47;;;;;;;22.09;60.21;101023.53;5044215;28;20032;-54
2023/08/27 18:57:21;;;;;;;1.13;0.60;;;;;;;22.09;59.76;101023.53;5041687;28;20044;-54
2023/08/27 18:59:50;;;;;;;1.00;0.77;;;;;;;22.10;59.96;101025.19;5043113;28;20049;-53
2023/08/27 19:02:16;;;;;;;0.50;0.50;;;;;;;22.11;59.74;101033.16;5041039;28;20041;-54
2023/08/27 19:04:41;;;;;;;1.02;0.52;;;;;;;22.12;60.32;101034.84;5038648;28;20060;-54
2023/08/27 19:07:06;;;;;;;0.50;0.50;;;;;;;22.12;59.69;101036.72;5042041;28;20025;-53
2023/08/27 19:09:32;;;;;;;0.50;0.50;;;;;;;22.12;59.96;101037.56;5039376;28;20060;-54
2023/08/27 19:11:57;;;;;;;1.10;0.47;;;;;;;22.12;60.04;101042.97;5042216;28;20029;-53
2023/08/27 19:14:25;;;;;;;1.50;0.52;;;;;;;22.13;60.04;101046.56;5042449;28;20037;-53
2023/08/27 19:16:51;;;;;;;0.43;0.43;;;;;;;22.13;59.75;101043.84;5033647;28;20121;-53
2023/08/27 19:19:16;;;;;;;1.90;0.50;;;;;;;22.14;59.47;101048.25;5030540;28;20164;-54
2023/08/27 19:21:42;;;;;;;0.85;0.70;;;;;;;22.13;59.68;101050.13;5022580;28;20025;-54
2023/08/27 19:24:09;;;;;;;1.08;0.60;;;;;;;22.13;59.48;101052.00;5032328;28;20094;-52
2023/08/27 19:26:35;;;;;;;1.92;0.70;;;;;;;22.13;59.61;101049.28;5029985;28;20092;-54
2023/08/27 19:29:01;;;;;;;0.50;0.50;;;;;;;22.13;59.96;101050.13;5031525;28;20052;-54
2023/08/27 19:31:26;;;;;;;1.65;0.40;;;;;;;22.13;59.94;101055.53;5032757;28;20034;-54
2023/08/27 19:33:52;;;;;;;1.00;0.38;;;;;;;22.13;59.75;101046.56;5032007;28;20034;-54
2023/08/27 19:36:17;;;;;;;0.63;0.47;;;;;;;22.14;59.74;101053.66;5027485;28;20029;-54
2023/08/27 19:38:42;;;;;;;0.50;0.43;;;;;;;22.14;59.92;101051.81;5030936;28;20527;-54
2023/08/27 19:41:10;;;;;;;1.10;0.70;;;;;;;22.13;60.04;101058.25;5031945;28;20022;-54
2023/08/27 19:43:35;;;;;;;0.50;0.50;;;;;;;22.13;59.43;101058.25;5023861;28;20382;-52
2023/08/27 19:46:00;;;;;;;1.45;0.40;;;;;;;22.13;59.39;101052.00;5032827;28;20027;-54
2023/08/27 19:48:29;;;;;;;1.25;0.70;;;;;;;22.13;59.45;101055.53;5034804;28;20028;-54
2023/08/27 19:50:54;;;;;;;1.17;0.60;;;;;;;22.13;59.50;101052.84;5033301;28;20499;-54
2023/08/27 19:53:20;;;;;;;1.08;0.57;;;;;;;22.12;59.50;101061.97;5033471;28;20026;-54
2023/08/27 19:55:48;;;;;;;0.40;0.40;;;;;;;22.13;59.58;101068.25;5031496;28;20033;-54
2023/08/27 19:58:14;;;;;;;0.40;0.40;;;;;;;22.13;59.50;101073.69;5032690;28;20390;-54
2023/08/27 20:00:40;;;;;;;0.40;0.40;;;;;;;22.13;59.42;101068.25;5023004;28;20033;-54
2023/08/27 20:03:06;;;;;;;0.57;0.40;;;;;;;22.13;59.95;101069.09;5026325;28;20036;-54
2023/08/27 20:05:36;;;;;;;0.40;0.40;;;;;;;22.12;60.02;101072.81;5028395;28;20403;-54
2023/08/27 20:08:02;;;;;;;0.50;0.50;;;;;;;22.11;59.68;101071.13;5030619;28;20865;-54
2023/08/27 20:10:28;;;;;;;1.10;0.57;;;;;;;22.12;59.92;101072.81;5031384;28;20268;-54
2023/08/27 20:12:53;;;;;;;1.55;0.50;;;;;;;22.12;59.85;101070.09;5027475;28;20040;-54
2023/08/27 20:15:19;;;;;;;0.70;0.70;;;;;;;22.11;59.61;101081.97;5021997;28;20030;-54
2023/08/27 20:17:44;;;;;;;0.40;0.40;;;;;;;22.12;59.43;101082.81;5029840;28;20027;-54
2023/08/27 20:20:10;;;;;;;0.93;0.50;;;;;;;22.12;59.39;101083.66;5023897;28;20029;-54
2023/08/27 20:22:35;;;;;;;1.08;0.60;;;;;;;22.11;59.81;101087.41;5031393;28;20413;-54
2023/08/27 20:25:01;;;;;;;0.60;0.60;;;;;;;22.11;59.84;101089.28;5023126;28;20029;-54
2023/08/27 20:27:26;;;;;;;0.47;0.47;;;;;;;22.11;59.56;101083.84;5032538;28;20124;-54
2023/08/27 20:29:51;;;;;;;1.10;0.60;;;;;;;22.11;59.68;101083.84;5025894;28;20499;-54
2023/08/27 20:32:17;;;;;;;0.32;0.32;;;;;;;22.10;59.99;101080.28;5029905;28;20040;-54
2023/08/27 20:34:42;;;;;;;1.27;0.40;;;;;;;22.10;59.47;101085.69;5026735;28;20063;-54
2023/08/27 20:37:08;;;;;;;0.70;0.45;;;;;;;22.10;59.94;101090.28;5026935;28;20364;-54
2023/08/27 20:39:33;;;;;;;0.60;0.45;;;;;;;22.09;59.36;101089.44;5029443;28;20025;-54
2023/08/27 20:41:58;;;;;;;0.30;0.30;;;;;;;22.09;60.00;101086.72;5032864;28;20043;-54
2023/08/27 20:44:25;;;;;;;0.60;0.50;;;;;;;22.09;59.41;101094.88;5028740;28;20467;-54
2023/08/27 20:46:51;;;;;;;0.50;0.47;;;;;;;22.09;59.79;101099.44;5031964;28;20052;-54
2023/08/27 20:49:16;;;;;;;1.30;0.40;;;;;;;22.07;59.79;101096.91;5021751;28;20399;-54
2023/08/27 20:51:41;;;;;;;0.90;0.50;;;;;;;22.08;59.65;101104.00;5031077;28;20037;-54
2023/08/27 20:54:10;;;;;;;0.40;0.40;;;;;;;22.07;59.33;101105.03;5024358;28;20041;-54
2023/08/27 20:56:37;;;;;;;0.85;0.47;;;;;;;22.06;59.88;101111.47;5030776;28;20021;-54
2023/08/27 20:59:03;;;;;;;0.95;0.50;;;;;;;22.06;59.54;101111.47;5025746;28;20037;-54
2023/08/27 21:01:29;;;;;;;0.55;0.45;;;;;;;22.06;59.86;101112.28;5029302;28;20107;-54
2023/08/27 21:03:54;;;;;;;0.55;0.45;;;;;;;22.06;59.55;101119.59;5026968;28;20045;-54
2023/08/27 21:06:20;;;;;;;0.40;0.40;;;;;;;22.06;59.68;101116.88;5029897;28;20053;-54
2023/08/27 21:08:45;;;;;;;0.57;0.57;;;;;;;22.06;59.32;101119.59;5024803;28;20034;-54
2023/08/27 21:11:10;;;;;;;0.60;0.32;;;;;;;22.05;59.46;101118.75;5027774;28;20068;-54
2023/08/27 21:13:36;;;;;;;0.65;0.65;;;;;;;22.05;59.70;101115.19;5025613;28;20496;-54
2023/08/27 21:16:02;;;;;;;0.40;0.40;;;;;;;22.04;59.45;101116.19;5028153;28;20388;-54
2023/08/27 21:18:27;;;;;;;0.50;0.50;;;;;;;22.05;59.43;101128.75;5031271;28;20068;-54
2023/08/27 21:20:54;;;;;;;0.73;0.50;;;;;;;22.04;59.68;101127.03;5027703;28;20045;-54
2023/08/27 21:23:23;;;;;;;0.60;0.60;;;;;;;22.04;59.81;101135.19;5030989;28;20036;-54
2023/08/27 21:25:49;;;;;;;0.40;0.40;;;;;;;22.03;59.32;101133.50;5029529;28;20435;-54
2023/08/27 21:28:18;;;;;;;1.17;0.43;;;;;;;22.03;59.30;101136.22;5024206;28;20032;-54
2023/08/27 21:30:47;;;;;;;0.17;0.17;;;;;;;22.02;59.68;101143.47;5030707;28;20068;-54
2023/08/27 21:33:13;;;;;;;0.50;0.35;;;;;;;22.03;59.75;101144.34;5032821;28;20032;-54
2023/08/27 21:35:42;;;;;;;0.40;0.40;;;;;;;22.02;59.64;101150.78;5029014;28;20106;-54
2023/08/27 21:38:08;;;;;;;0.90;0.40;;;;;;;22.02;59.59;101142.63;5032768;28;20053;-54
2023/08/27 21:40:38;;;;;;;1.05;0.40;;;;;;;22.01;59.69;101139.09;5024931;28;20069;-54
2023/08/27 21:43:04;;;;;;;0.40;0.40;;;;;;;22.01;59.29;101139.09;5024617;28;20037;-54
2023/08/27 21:45:30;;;;;;;0.40;0.40;;;;;;;22.02;59.20;101142.63;5027536;28;20038;-54
2023/08/27 21:47:55;;;;;;;0.95;0.32;;;;;;;22.02;59.60;101137.22;5028298;28;20079;-54
2023/08/27 21:50:20;;;;;;;0.57;0.57;;;;;;;22.01;59.39;101140.97;5027889;28;20045;-54
2023/08/27 21:52:46;;;;;;;0.30;0.30;;;;;;;22.01;59.28;101140.97;5025865;28;20041;-54
2023/08/27 21:55:13;;;;;;;0.40;0.40;;;;;;;22.00;59.52;101134.66;5031749;28;20491;-53
2023/08/27 21:57:39;;;;;;;0.50;0.50;;;;;;;21.99;59.20;101132.97;5028424;28;20040;-54
2023/08/27 22:00:06;;;;;;;0.45;0.45;;;;;;;22.00;59.50;101147.38;5025588;28;20120;-54
2023/08/27 22:02:31;;;;;;;0.80;0.40;;;;;;;21.99;59.55;101140.25;5025540;28;20037;-54
2023/08/27 22:04:56;;;;;;;0.38;0.38;;;;;;;21.99;59.49;101141.13;5029743;28;20138;-54
2023/08/27 22:07:22;;;;;;;0.45;0.40;;;;;;;21.98;59.18;101139.41;5026583;28;20041;-53
2023/08/27 22:09:50;;;;;;;0.50;0.50;;;;;;;21.99;59.03;101137.53;5028942;28;20116;-54
2023/08/27 22:12:16;;;;;;;0.50;0.50;;;;;;;21.98;59.23;101131.28;5029744;28;20040;-52
2023/08/27 22:14:42;;;;;;;0.35;0.35;;;;;;;21.99;59.09;101122.13;5030188;28;20025;-53
2023/08/27 22:17:07;;;;;;;0.90;0.60;;;;;;;21.98;59.64;101130.44;5028764;28;20410;-54
2023/08/27 22:19:34;;;;;;;0.50;0.50;;;;;;;21.97;59.09;101126.00;5027787;28;20051;-54
2023/08/27 22:21:59;;;;;;;0.52;0.40;;;;;;;21.97;59.48;101128.72;5025735;28;20043;-54
2023/08/27 22:24:25;;;;;;;1.00;0.50;;;;;;;21.96;59.55;101117.03;5028669;28;20038;-54
2023/08/27 22:26:50;;;;;;;0.40;0.40;;;;;;;21.98;59.41;101127.72;5021566;28;20041;-54
2023/08/27 22:29:16;;;;;;;1.25;0.35;;;;;;;21.96;59.38;101121.63;5025540;28;20068;-54
2023/08/27 22:31:41;;;;;;;0.50;0.50;;;;;;;21.96;58.98;101125.16;5026880;28;20029;-53
2023/08/27 22:34:06;;;;;;;0.32;0.32;;;;;;;21.95;59.20;101131.63;5029694;28;20041;-54
2023/08/27 22:36:32;;;;;;;0.32;0.32;;;;;;;21.97;59.42;101128.72;5026276;28;20034;-54
2023/08/27 22:38:57;;;;;;;0.32;0.32;;;;;;;21.96;58.92;101127.03;5028990;28;20480;-54
2023/08/27 22:41:22;;;;;;;0.60;0.52;;;;;;;21.96;59.29;101127.03;5021954;28;20107;-54
2023/08/27 22:43:48;;;;;;;0.93;0.45;;;;;;;21.95;58.92;101118.06;5025482;28;20129;-54
2023/08/27 22:46:13;;;;;;;0.40;0.40;;;;;;;21.95;58.87;101125.31;5027450;28;20072;-54
2023/08/27 22:48:39;;;;;;;0.40;0.40;;;;;;;21.94;59.52;101123.66;5028277;28;20076;-54
2023/08/27 22:51:04;;;;;;;2.13;0.60;;;;;;;21.95;58.77;101122.63;5032649;28;20040;-54
2023/08/27 22:53:29;;;;;;;0.90;0.32;;;;;;;21.93;58.84;101120.06;5027593;28;20555;-54
2023/08/27 22:55:55;;;;;;;0.35;0.35;;;;;;;21.94;58.89;101112.81;5027347;28;20061;-54
2023/08/27 22:58:20;;;;;;;0.40;0.40;;;;;;;21.93;59.31;101116.50;5028505;28;20041;-54
2023/08/27 23:00:45;;;;;;;0.40;0.30;;;;;;;21.93;59.20;101121.94;5032331;28;20078;-54
2023/08/27 23:03:11;;;;;;;0.65;0.50;;;;;;;21.94;59.20;101129.06;5031631;28;20061;-54
2023/08/27 23:05:36;;;;;;;0.50;0.50;;;;;;;21.92;58.82;101126.53;5029121;28;20072;-54
2023/08/27 23:08:02;;;;;;;0.40;0.40;;;;;;;21.91;59.09;101119.38;5026339;28;20121;-54
2023/08/27 23:10:27;;;;;;;0.45;0.40;;;;;;;21.92;58.94;101120.25;5033911;28;20033;-53
2023/08/27 23:12:52;;;;;;;0.43;0.43;;;;;;;21.92;59.21;101125.69;5034138;28;20454;-53
2023/08/27 23:15:18;;;;;;;0.40;0.40;;;;;;;21.91;59.05;101118.53;5029774;28;20088;-54
2023/08/27 23:17:44;;;;;;;0.43;0.43;;;;;;;21.91;59.09;101124.81;5029698;28;20068;-54
2023/08/27 23:20:11;;;;;;;0.38;0.38;;;;;;;21.90;59.08;101123.13;5029013;28;20119;-54
2023/08/27 23:22:37;;;;;;;0.70;0.47;;;;;;;21.90;58.80;101122.28;5032253;28;20033;-54
2023/08/27 23:25:03;;;;;;;0.40;0.40;;;;;;;21.91;59.11;101132.09;5041440;28;20029;-53
2023/08/27 23:27:29;;;;;;;0.60;0.40;;;;;;;21.89;59.05;101129.56;5028891;28;20108;-53
2023/08/27 23:29:54;;;;;;;0.40;0.40;;;;;;;21.90;58.56;101138.56;5031486;28;20051;-53
2023/08/27 23:32:20;;;;;;;0.35;0.35;;;;;;;21.90;58.66;101133.97;5030706;28;20107;-54
2023/08/27 23:34:45;;;;;;;0.38;0.38;;;;;;;21.89;58.50;101134.97;5031750;28;20025;-54
2023/08/27 23:37:10;;;;;;;0.38;0.38;;;;;;;21.89;58.63;101126.00;5030932;28;20033;-54
2023/08/27 23:39:37;;;;;;;0.40;0.40;;;;;;;21.89;58.65;101136.84;5026411;28;20365;-54
2023/08/27 23:42:05;;;;;;;0.40;0.40;;;;;;;21.88;59.05;101138.72;5028108;28;20026;-54
2023/08/27 23:44:31;;;;;;;0.80;0.30;;;;;;;21.87;58.83;101137.00;5030926;28;20045;-54
2023/08/27 23:46:56;;;;;;;0.50;0.50;;;;;;;21.88;58.86;101146.00;5031071;28;20064;-53
2023/08/27 23:49:21;;;;;;;0.30;0.30;;;;;;;21.86;58.91;101136.16;5031539;28;20037;-53
2023/08/27 23:51:47;;;;;;;0.57;0.57;;;;;;;21.86;59.07;101138.03;5029471;28;20076;-54
2023/08/27 23:54:14;;;;;;;0.30;0.30;;;;;;;21.86;58.98;101138.03;5029336;28;20037;-54
2023/08/27 23:56:40;;;;;;;0.60;0.50;;;;;;;21.86;58.82;101138.88;5028841;28;20034;-54
2023/08/27 23:59:06;;;;;;;0.40;0.40;;;;;;;21.86;58.50;101138.03;5026124;28;20057;-53
